Dn Vatan — TCZN6 — position and weather

sailwx.info

Track history (hours):
 
Tides and Currents Weather Stations Pressure Air Temp Water Temp Dewpoint Dewpoint Depression Visibility Wind Speed Wind Dir Waves Ship Positions

Dn Vatan

Last reported at 2017-Dec-12 17:41 UTC. Time now 2017-Dec-18 20:08 UTC.
Position N 25°24' E 120°51'.

Length 196 m; draft 6.6 m.

Type: Cargo ship. MMSI: 270991365.

Date/timePositionNaut miles runAvg speedWind from/ knotsBaromVisibWave heightAir tempDewpointWater temp
2017-Dec-12 17:41N 25°24' E 120°51'2 9.9
2017-Dec-12 17:30N 25°22' E 120°51'510.0
2017-Dec-12 17:00N 25°17' E 120°49'1710.0
2017-Dec-12 15:21N 25°02' E 120°43'3 9.8
2017-Dec-12 15:00N 24°58' E 120°41'87 9.6
2017-Dec-12 05:54N 23°43' E 119°55'511.5
2017-Dec-12 05:28N 23°38' E 119°54'511.3
2017-Dec-12 05:00N 23°32' E 119°54'611.0
2017-Dec-12 04:30N 23°27' E 119°54'510.4
2017-Dec-12 04:00N 23°22' E 119°54'  
2017-Dec-04 05:40N 01°17' E 104°00'0 0.0
2017-Dec-04 05:16N 01°17' E 104°00'0 0.0
2017-Dec-04 04:49N 01°17' E 104°00'0 0.1
2017-Dec-04 04:19N 01°17' E 104°00'0 0.1
2017-Dec-04 02:52N 01°17' E 103°60'0 0.0
2017-Dec-03 04:04N 01°17' E 104°00'0 0.0
2017-Dec-03 03:40N 01°17' E 104°00'0 0.2
2017-Dec-03 03:13N 01°17' E 103°60'0 0.4
2017-Dec-03 02:52N 01°17' E 103°60'  
Track history (hours):
 
Tides and Currents Weather Stations Pressure Air Temp Water Temp Dewpoint Dewpoint Depression Visibility Wind Speed Wind Dir Waves Ship Positions

Dn Vatan

Last reported at 2017-Dec-12 17:41 UTC. Time now 2017-Dec-18 20:08 UTC.
Position N 25°24' E 120°51'.

Length 196 m; draft 6.6 m.

Type: Cargo ship. MMSI: 270991365.

Date/timePositionNaut miles runAvg speedWind from/ knotsBaromVisibWave heightAir tempDewpointWater temp
2017-Dec-12 17:41N 25°24' E 120°51'2 9.9
2017-Dec-12 17:30N 25°22' E 120°51'510.0
2017-Dec-12 17:00N 25°17' E 120°49'1710.0
2017-Dec-12 15:21N 25°02' E 120°43'3 9.8
2017-Dec-12 15:00N 24°58' E 120°41'87 9.6
2017-Dec-12 05:54N 23°43' E 119°55'511.5
2017-Dec-12 05:28N 23°38' E 119°54'511.3
2017-Dec-12 05:00N 23°32' E 119°54'611.0
2017-Dec-12 04:30N 23°27' E 119°54'510.4
2017-Dec-12 04:00N 23°22' E 119°54'  
2017-Dec-04 05:40N 01°17' E 104°00'0 0.0
2017-Dec-04 05:16N 01°17' E 104°00'0 0.0
2017-Dec-04 04:49N 01°17' E 104°00'0 0.1
2017-Dec-04 04:19N 01°17' E 104°00'0 0.1
2017-Dec-04 02:52N 01°17' E 103°60'0 0.0
2017-Dec-03 04:04N 01°17' E 104°00'0 0.0
2017-Dec-03 03:40N 01°17' E 104°00'0 0.2
2017-Dec-03 03:13N 01°17' E 103°60'0 0.4
2017-Dec-03 02:52N 01°17' E 103°60'  

Dump ship's entire track history